createdAt,value
2023-03-26T00:00:44.245Z,100811.19
2023-03-26T00:03:16.429Z,100818.91
2023-03-26T00:05:45.583Z,100814.63
2023-03-26T00:08:12.528Z,100813.78
2023-03-26T00:10:41.447Z,100812.09
2023-03-26T00:13:08.542Z,100815.47
2023-03-26T00:15:36.128Z,100814.69
2023-03-26T00:18:03.470Z,100811.31
2023-03-26T00:20:32.795Z,100808.78
2023-03-26T00:23:01.730Z,100802.81
2023-03-26T00:25:28.468Z,100802.03
2023-03-26T00:27:54.883Z,100802.88
2023-03-26T00:30:21.400Z,100804.56
2023-03-26T00:32:53.379Z,100796.09
2023-03-26T00:35:20.764Z,100805.47
2023-03-26T00:37:47.212Z,100797.84
2023-03-26T00:40:13.885Z,100789.34
2023-03-26T00:42:40.325Z,100787.66
2023-03-26T00:45:07.449Z,100785.19
2023-03-26T00:47:34.484Z,100779.28
2023-03-26T00:50:01.468Z,100768.31
2023-03-26T00:52:28.708Z,100780.25
2023-03-26T00:54:55.964Z,100776.06
2023-03-26T00:57:34.629Z,100764.16
2023-03-26T01:00:15.871Z,100759.13
2023-03-26T01:02:45.074Z,100762.50
2023-03-26T01:05:36.659Z,100763.38
2023-03-26T01:08:15.098Z,100765.91
2023-03-26T01:10:43.346Z,100766.72
2023-03-26T01:13:10.350Z,100762.44
2023-03-26T01:15:37.411Z,100756.47
2023-03-26T01:18:09.856Z,100753.94
2023-03-26T01:20:46.804Z,100741.22
2023-03-26T01:23:19.928Z,100741.25
2023-03-26T01:25:55.944Z,100733.59
2023-03-26T01:28:26.454Z,100727.66
2023-03-26T01:31:09.956Z,100722.59
2023-03-26T01:33:46.044Z,100720.03
2023-03-26T01:36:25.921Z,100723.47
2023-03-26T01:39:04.970Z,100722.56
2023-03-26T01:41:43.344Z,100716.59
2023-03-26T01:44:15.276Z,100708.88
2023-03-26T01:46:42.190Z,100712.28
2023-03-26T01:49:13.029Z,100711.38
2023-03-26T01:51:41.946Z,100703.72
2023-03-26T01:54:13.569Z,100698.66
2023-03-26T01:57:01.626Z,100695.28
2023-03-26T01:59:40.582Z,100693.59
2023-03-26T02:02:14.857Z,100689.38
2023-03-26T02:05:04.659Z,100682.56
2023-03-26T02:07:59.307Z,100677.50
2023-03-26T02:10:44.074Z,100669.88
2023-03-26T02:13:12.547Z,100667.38
2023-03-26T02:15:55.700Z,100664.03
2023-03-26T02:18:24.299Z,100667.44
2023-03-26T02:20:53.207Z,100670.03
2023-03-26T02:23:20.966Z,100666.69
2023-03-26T02:25:48.011Z,100656.59
2023-03-26T02:28:14.499Z,100655.72
2023-03-26T02:30:40.910Z,100650.50
2023-03-26T02:33:07.433Z,100652.16
2023-03-26T02:35:33.931Z,100656.38
2023-03-26T02:38:00.569Z,100648.72
2023-03-26T02:40:27.067Z,100643.56
2023-03-26T02:42:53.608Z,100638.44
2023-03-26T02:45:20.316Z,100639.22
2023-03-26T02:47:46.791Z,100639.19
2023-03-26T02:50:13.478Z,100634.00
2023-03-26T02:52:40.088Z,100635.69
2023-03-26T02:55:07.424Z,100629.69
2023-03-26T02:57:34.026Z,100632.22
2023-03-26T03:00:02.359Z,100635.63
2023-03-26T03:02:29.425Z,100627.09
2023-03-26T03:05:01.312Z,100634.72
2023-03-26T03:07:28.851Z,100629.56
2023-03-26T03:09:55.234Z,100620.94
2023-03-26T03:12:21.657Z,100616.66
2023-03-26T03:14:48.164Z,100614.84
2023-03-26T03:17:14.715Z,100613.09
2023-03-26T03:19:41.138Z,100615.53
2023-03-26T03:22:07.534Z,100612.94
2023-03-26T03:24:34.063Z,100606.88
2023-03-26T03:27:00.629Z,100605.94
2023-03-26T03:29:27.100Z,100602.41
2023-03-26T03:31:53.737Z,100603.19
2023-03-26T03:34:21.621Z,100598.00
2023-03-26T03:36:48.613Z,100601.28
2023-03-26T03:39:15.881Z,100597.91
2023-03-26T03:41:42.382Z,100597.88
2023-03-26T03:44:08.995Z,100598.72
2023-03-26T03:46:35.924Z,100599.50
2023-03-26T03:49:03.397Z,100601.19
2023-03-26T03:51:29.801Z,100597.75
2023-03-26T03:53:56.633Z,100596.88
2023-03-26T03:56:24.120Z,100594.31
2023-03-26T03:58:50.619Z,100601.94
2023-03-26T04:01:17.217Z,100592.56
2023-03-26T04:03:46.957Z,100592.56
2023-03-26T04:06:13.786Z,100590.00
2023-03-26T04:08:40.472Z,100587.38
2023-03-26T04:11:06.965Z,100588.25
2023-03-26T04:13:33.333Z,100578.88
2023-03-26T04:16:00.462Z,100574.63
2023-03-26T04:18:27.808Z,100566.09
2023-03-26T04:20:55.525Z,100560.97
2023-03-26T04:23:22.538Z,100558.38
2023-03-26T04:25:53.437Z,100559.28
2023-03-26T04:28:35.493Z,100556.69
2023-03-26T04:31:06.366Z,100556.72
2023-03-26T04:33:34.745Z,100552.44
2023-03-26T04:36:02.921Z,100554.19
2023-03-26T04:38:34.107Z,100541.41
2023-03-26T04:41:04.017Z,100536.28
2023-03-26T04:43:31.182Z,100525.16
2023-03-26T04:45:57.696Z,100526.91
2023-03-26T04:48:24.137Z,100526.03
2023-03-26T04:50:50.687Z,100513.25
2023-03-26T04:53:21.117Z,100516.63
2023-03-26T04:55:57.333Z,100514.06
2023-03-26T04:58:30.089Z,100514.06
2023-03-26T05:00:57.277Z,100514.91
2023-03-26T05:03:23.746Z,100506.41
2023-03-26T05:05:50.417Z,100493.63
2023-03-26T05:08:16.789Z,100491.06
2023-03-26T05:10:43.160Z,100490.22
2023-03-26T05:13:09.651Z,100488.53
2023-03-26T05:15:36.008Z,100484.25
2023-03-26T05:18:02.478Z,100487.66
2023-03-26T05:20:31.153Z,100482.53
2023-03-26T05:22:57.662Z,100481.63
2023-03-26T05:25:24.106Z,100478.22
2023-03-26T05:27:50.628Z,100479.03
2023-03-26T05:30:19.834Z,100473.94
2023-03-26T05:32:48.825Z,100466.31
2023-03-26T05:35:19.397Z,100463.75
2023-03-26T05:37:47.381Z,100468.00
2023-03-26T05:40:16.712Z,100468.88
2023-03-26T05:42:43.593Z,100462.88
2023-03-26T05:45:12.511Z,100452.66
2023-03-26T05:47:39.312Z,100462.00
2023-03-26T05:50:06.774Z,100439.00
2023-03-26T05:52:33.391Z,100448.38
2023-03-26T05:54:59.888Z,100445.81
2023-03-26T05:57:29.429Z,100440.69
2023-03-26T05:59:56.339Z,100438.91
2023-03-26T06:02:23.690Z,100438.88
2023-03-26T06:04:50.950Z,100438.81
2023-03-26T06:07:18.109Z,100431.16
2023-03-26T06:09:45.116Z,100426.84
2023-03-26T06:12:12.485Z,100429.38
2023-03-26T06:14:38.978Z,100424.25
2023-03-26T06:17:05.425Z,100414.81
2023-03-26T06:19:31.861Z,100418.16
2023-03-26T06:21:58.250Z,100410.44
2023-03-26T06:24:24.660Z,100411.25
2023-03-26T06:26:52.211Z,100406.03
2023-03-26T06:29:18.665Z,100402.66
2023-03-26T06:31:45.204Z,100403.38
2023-03-26T06:34:11.667Z,100400.72
2023-03-26T06:36:38.147Z,100399.84
2023-03-26T06:39:07.775Z,100400.63
2023-03-26T06:41:35.493Z,100397.97
2023-03-26T06:44:01.911Z,100398.78
2023-03-26T06:46:28.735Z,100399.56
2023-03-26T06:48:55.298Z,100398.63
2023-03-26T06:51:21.676Z,100398.59
2023-03-26T06:53:48.046Z,100394.31
2023-03-26T06:56:14.528Z,100401.97
2023-03-26T06:58:41.254Z,100395.16
2023-03-26T07:01:07.811Z,100390.88
2023-03-26T07:03:34.339Z,100401.09
2023-03-26T07:06:00.779Z,100394.31
2023-03-26T07:08:27.424Z,100395.22
2023-03-26T07:10:54.087Z,100396.03
2023-03-26T07:13:20.748Z,100391.69
2023-03-26T07:15:48.864Z,100398.50
2023-03-26T07:18:15.327Z,100389.13
2023-03-26T07:20:42.366Z,100389.03
2023-03-26T07:23:11.534Z,100390.56
2023-03-26T07:25:38.376Z,100397.31
2023-03-26T07:28:24.967Z,100390.41
2023-03-26T07:31:10.839Z,100394.59
2023-03-26T07:33:40.367Z,100389.44
2023-03-26T07:36:33.036Z,100387.59
2023-03-26T07:39:18.734Z,100388.31
2023-03-26T07:42:01.560Z,100383.13
2023-03-26T07:44:50.214Z,100389.88
2023-03-26T07:47:33.563Z,100379.59
2023-03-26T07:50:00.300Z,100389.72
2023-03-26T07:52:28.404Z,100376.94
2023-03-26T07:54:55.650Z,100381.06
2023-03-26T07:57:47.488Z,100377.53
2023-03-26T08:00:25.128Z,100379.16
2023-03-26T08:03:22.010Z,100379.88
2023-03-26T08:06:08.799Z,100376.38
2023-03-26T08:08:45.781Z,100378.91
2023-03-26T08:11:24.733Z,100373.78
2023-03-26T08:14:03.166Z,100373.66
2023-03-26T08:16:39.845Z,100375.34
2023-03-26T08:19:12.779Z,100375.28
2023-03-26T08:21:48.244Z,100372.72
2023-03-26T08:24:37.027Z,100374.41
2023-03-26T08:27:18.693Z,100369.47
2023-03-26T08:30:17.165Z,100373.06
2023-03-26T08:32:52.844Z,100371.31
2023-03-26T08:35:19.266Z,100376.38
2023-03-26T08:37:45.659Z,100370.34
2023-03-26T08:40:13.626Z,100371.22
2023-03-26T08:43:04.474Z,100364.41
2023-03-26T08:45:51.375Z,100364.53
2023-03-26T08:48:34.694Z,100365.50
2023-03-26T08:51:28.619Z,100368.13
2023-03-26T08:54:13.551Z,100373.25
2023-03-26T08:57:17.397Z,100372.47
2023-03-26T08:59:53.453Z,100375.84
2023-03-26T09:03:15.245Z,100372.53
2023-03-26T09:05:47.401Z,100365.88
2023-03-26T09:08:53.737Z,100369.38
2023-03-26T09:11:36.160Z,100375.41
2023-03-26T09:14:22.821Z,100370.44
2023-03-26T09:16:58.390Z,100377.31
2023-03-26T09:19:52.797Z,100368.91
2023-03-26T09:22:41.545Z,100373.13
2023-03-26T09:25:14.101Z,100370.59
2023-03-26T09:27:53.996Z,100372.25
2023-03-26T09:30:57.893Z,100374.03
2023-03-26T09:33:59.252Z,100372.19
2023-03-26T09:36:48.486Z,100375.47
2023-03-26T09:39:27.391Z,100371.09
2023-03-26T09:42:09.796Z,100372.69
2023-03-26T09:44:41.838Z,100381.06
2023-03-26T09:47:32.259Z,100380.19
2023-03-26T09:50:29.198Z,100379.31
2023-03-26T09:53:21.550Z,100380.19
2023-03-26T09:55:56.663Z,100392.13
2023-03-26T09:58:33.086Z,100387.81
2023-03-26T10:01:05.700Z,100392.13
2023-03-26T10:03:59.909Z,100394.78
2023-03-26T10:06:33.550Z,100392.34
2023-03-26T10:09:37.496Z,100402.63
2023-03-26T10:12:24.396Z,100402.56
2023-03-26T10:14:59.516Z,100399.25
2023-03-26T10:17:43.071Z,100403.47
2023-03-26T10:20:37.814Z,100403.59
2023-03-26T10:23:47.052Z,100401.16
2023-03-26T10:26:34.490Z,100404.56
2023-03-26T10:29:18.942Z,100399.28
2023-03-26T10:32:19.893Z,100414.53
2023-03-26T10:35:04.068Z,100409.53
2023-03-26T10:38:03.750Z,100417.19
2023-03-26T10:41:04.557Z,100412.13
2023-03-26T10:43:42.557Z,100413.81
2023-03-26T10:46:21.490Z,100416.28
2023-03-26T10:49:09.967Z,100419.44
2023-03-26T10:51:51.316Z,100422.81
2023-03-26T10:55:08.967Z,100414.22
2023-03-26T10:57:44.573Z,100427.94
2023-03-26T11:00:16.526Z,100424.69
2023-03-26T11:03:01.367Z,100433.63
2023-03-26T11:05:46.432Z,100433.97
2023-03-26T11:08:31.092Z,100440.06
2023-03-26T11:11:14.393Z,100438.44
2023-03-26T11:13:53.632Z,100443.44
2023-03-26T11:16:44.847Z,100439.22
2023-03-26T11:19:38.796Z,100444.22
2023-03-26T11:22:30.120Z,100444.31
2023-03-26T11:25:05.624Z,100447.88
2023-03-26T11:27:38.267Z,100446.09
2023-03-26T11:30:26.375Z,100450.94
2023-03-26T11:33:01.582Z,100457.44
2023-03-26T11:35:40.514Z,100455.59
2023-03-26T11:38:26.458Z,100454.78
2023-03-26T11:40:56.011Z,100460.00
2023-03-26T11:43:30.045Z,100464.47
2023-03-26T11:45:56.618Z,100472.19
2023-03-26T11:48:27.904Z,100467.38
2023-03-26T11:51:04.365Z,100474.38
2023-03-26T11:53:34.714Z,100469.41
2023-03-26T11:56:08.061Z,100468.59
2023-03-26T11:58:37.455Z,100477.09
2023-03-26T12:01:13.372Z,100474.44
2023-03-26T12:03:40.490Z,100471.00
2023-03-26T12:06:25.552Z,100479.34
2023-03-26T12:08:53.676Z,100480.03
2023-03-26T12:11:27.360Z,100480.66
2023-03-26T12:14:03.987Z,100480.41
2023-03-26T12:16:30.937Z,100475.16
2023-03-26T12:19:22.532Z,100487.91
2023-03-26T12:21:51.729Z,100486.88
2023-03-26T12:24:31.091Z,100489.28
2023-03-26T12:27:20.566Z,100483.22
2023-03-26T12:30:12.500Z,100489.66
2023-03-26T12:32:46.123Z,100493.69
2023-03-26T12:35:27.334Z,100496.72
2023-03-26T12:37:55.378Z,100496.28
2023-03-26T12:40:35.947Z,100494.41
2023-03-26T12:44:52.751Z,100497.94
2023-03-26T12:47:54.002Z,100502.38
2023-03-26T12:48:41.549Z,100499.75
2023-03-26T12:51:21.603Z,100511.03
2023-03-26T12:54:25.939Z,100509.47
2023-03-26T12:57:21.448Z,100517.75
2023-03-26T13:00:23.438Z,100515.19
2023-03-26T13:03:44.929Z,100518.38
2023-03-26T13:07:00.144Z,100525.69
2023-03-26T13:09:37.669Z,100520.25
2023-03-26T13:12:14.421Z,100533.69
2023-03-26T13:15:09.071Z,100523.59
2023-03-26T13:17:48.140Z,100528.63
2023-03-26T13:20:33.158Z,100534.28
2023-03-26T13:23:22.806Z,100530.81
2023-03-26T13:26:11.497Z,100536.25
2023-03-26T13:28:50.268Z,100540.38
2023-03-26T13:31:35.330Z,100545.63
2023-03-26T13:34:23.585Z,100542.31
2023-03-26T13:37:07.305Z,100546.44
2023-03-26T13:40:05.031Z,100551.56
2023-03-26T13:42:47.688Z,100549.00
2023-03-26T13:45:27.571Z,100555.50
2023-03-26T13:47:57.052Z,100551.66
2023-03-26T13:50:26.461Z,100552.56
2023-03-26T13:53:10.822Z,100549.78
2023-03-26T13:55:42.651Z,100565.00
2023-03-26T13:58:34.663Z,100563.09
2023-03-26T14:01:12.648Z,100571.44
2023-03-26T14:04:19.187Z,100563.91
2023-03-26T14:07:07.303Z,100575.22
2023-03-26T14:09:46.542Z,100570.13
2023-03-26T14:12:37.930Z,100569.56
2023-03-26T14:15:16.372Z,100590.22
2023-03-26T14:17:50.560Z,100585.25
2023-03-26T14:20:48.955Z,100591.41
2023-03-26T14:23:41.167Z,100592.50
2023-03-26T14:26:16.513Z,100599.53
2023-03-26T14:28:57.447Z,100612.63
2023-03-26T14:32:01.008Z,100606.78
2023-03-26T14:34:46.872Z,100608.56
2023-03-26T14:37:34.824Z,100615.34
2023-03-26T14:40:16.613Z,100625.59
2023-03-26T14:42:56.595Z,100629.16
2023-03-26T14:45:45.855Z,100631.06
2023-03-26T14:48:41.019Z,100643.06
2023-03-26T14:51:30.935Z,100641.44
2023-03-26T14:54:06.775Z,100642.28
2023-03-26T14:57:16.025Z,100659.50
2023-03-26T15:00:19.989Z,100658.69
2023-03-26T15:03:21.514Z,100664.97
2023-03-26T15:06:15.910Z,100668.41
2023-03-26T15:09:18.721Z,100673.38
2023-03-26T15:12:12.606Z,100680.00
2023-03-26T15:15:04.282Z,100680.97
2023-03-26T15:17:44.763Z,100687.81
2023-03-26T15:20:48.567Z,100685.34
2023-03-26T15:23:26.020Z,100682.75
2023-03-26T15:26:04.214Z,100698.78
2023-03-26T15:28:52.398Z,100698.53
2023-03-26T15:32:30.188Z,100697.88
2023-03-26T15:35:17.449Z,100713.38
2023-03-26T15:37:58.625Z,100709.28
2023-03-26T15:40:29.169Z,100705.34
2023-03-26T15:43:01.472Z,100728.66
2023-03-26T15:45:27.914Z,100733.88
2023-03-26T15:48:01.330Z,100728.88
2023-03-26T15:50:45.714Z,100736.78
2023-03-26T15:53:33.903Z,100726.72
2023-03-26T15:56:12.850Z,100755.69
2023-03-26T15:58:52.010Z,100761.75
2023-03-26T16:01:34.046Z,100760.03
2023-03-26T16:04:12.555Z,100774.56
2023-03-26T16:06:59.364Z,100772.13
2023-03-26T16:09:50.772Z,100790.97
2023-03-26T16:12:17.223Z,100790.16
2023-03-26T16:14:46.059Z,100792.16
2023-03-26T16:17:23.364Z,100803.34
2023-03-26T16:19:59.250Z,100795.59
2023-03-26T16:22:54.852Z,100800.84
2023-03-26T16:25:29.230Z,100802.63
2023-03-26T16:28:10.156Z,100823.06
2023-03-26T16:30:37.053Z,100815.53
2023-03-26T16:33:15.346Z,100822.47
2023-03-26T16:36:03.000Z,100821.72
2023-03-26T16:38:51.812Z,100833.66
2023-03-26T16:41:51.284Z,100840.53
2023-03-26T16:44:21.091Z,100838.94
2023-03-26T16:47:13.935Z,100856.16
2023-03-26T16:50:29.252Z,100870.69
2023-03-26T16:53:33.306Z,100874.09
2023-03-26T16:56:22.271Z,100875.84
2023-03-26T16:58:56.049Z,100878.44
2023-03-26T17:01:42.862Z,100887.91
2023-03-26T17:04:24.638Z,100891.44
2023-03-26T17:07:13.644Z,100910.25
2023-03-26T17:10:12.371Z,100910.38
2023-03-26T17:13:02.230Z,100921.50
2023-03-26T17:15:34.621Z,100926.69
2023-03-26T17:18:38.331Z,100921.63
2023-03-26T17:21:19.720Z,100929.38
2023-03-26T17:24:17.430Z,100939.72
2023-03-26T17:27:16.328Z,100948.38
2023-03-26T17:30:00.550Z,100961.25
2023-03-26T17:33:05.095Z,100962.97
2023-03-26T17:35:51.615Z,100961.28
2023-03-26T17:38:17.977Z,100972.34
2023-03-26T17:40:57.605Z,100975.81
2023-03-26T17:43:38.010Z,100984.44
2023-03-26T17:46:30.387Z,100994.66
2023-03-26T17:49:01.378Z,100992.16
2023-03-26T17:51:47.741Z,100991.38
2023-03-26T17:54:28.840Z,100998.31
2023-03-26T17:57:00.626Z,101011.13
2023-03-26T17:59:30.494Z,101012.00
2023-03-26T18:02:03.841Z,101017.13
2023-03-26T18:04:36.381Z,101022.28
2023-03-26T18:07:11.952Z,101033.44
2023-03-26T18:09:50.738Z,101042.91
2023-03-26T18:12:50.853Z,101043.03
2023-03-26T18:15:49.715Z,101049.91
2023-03-26T18:18:25.624Z,101060.19
2023-03-26T18:20:54.545Z,101057.66
2023-03-26T18:23:36.801Z,101067.06
2023-03-26T18:26:18.358Z,101065.34
2023-03-26T18:29:20.442Z,101072.13
2023-03-26T18:31:50.214Z,101078.09
2023-03-26T18:34:21.071Z,101086.56
2023-03-26T18:37:01.040Z,101093.34
2023-03-26T18:39:28.538Z,101098.47
2023-03-26T18:41:55.464Z,101104.41
2023-03-26T18:44:22.775Z,101119.69
2023-03-26T18:46:54.706Z,101113.75
2023-03-26T18:49:24.050Z,101122.22
2023-03-26T18:51:57.218Z,101135.84
2023-03-26T18:54:29.576Z,101149.50
2023-03-26T18:56:59.014Z,101145.31
2023-03-26T18:59:32.029Z,101158.09
2023-03-26T19:02:05.134Z,101170.91
2023-03-26T19:04:37.147Z,101159.94
2023-03-26T19:07:08.694Z,101165.13
2023-03-26T19:09:35.708Z,101177.06
2023-03-26T19:12:16.806Z,101172.03
2023-03-26T19:14:58.006Z,101182.25
2023-03-26T19:17:30.404Z,101181.41
2023-03-26T19:19:57.651Z,101183.94
2023-03-26T19:22:25.042Z,101186.50
2023-03-26T19:24:57.788Z,101192.47
2023-03-26T19:27:24.786Z,101201.78
2023-03-26T19:29:51.254Z,101210.28
2023-03-26T19:32:21.265Z,101203.50
2023-03-26T19:34:48.442Z,101212.03
2023-03-26T19:37:24.929Z,101217.22
2023-03-26T19:39:53.686Z,101235.13
2023-03-26T19:42:26.564Z,101230.91
2023-03-26T19:44:54.138Z,101237.72
2023-03-26T19:47:31.947Z,101237.75
2023-03-26T19:50:26.267Z,101242.88
2023-03-26T19:53:16.716Z,101241.22
2023-03-26T19:55:53.894Z,101258.22
2023-03-26T19:58:20.435Z,101252.28
2023-03-26T20:00:47.005Z,101258.28
2023-03-26T20:03:16.572Z,101255.72
2023-03-26T20:05:43.335Z,101262.53
2023-03-26T20:08:19.646Z,101265.94
2023-03-26T20:10:46.193Z,101266.81
2023-03-26T20:13:17.210Z,101284.63
2023-03-26T20:16:05.573Z,101282.09
2023-03-26T20:18:33.846Z,101281.22
2023-03-26T20:21:00.555Z,101282.06
2023-03-26T20:23:28.782Z,101296.53
2023-03-26T20:25:55.507Z,101299.91
2023-03-26T20:28:22.268Z,101300.78
2023-03-26T20:30:50.027Z,101305.00
2023-03-26T20:33:25.338Z,101310.09
2023-03-26T20:35:53.315Z,101315.22
2023-03-26T20:38:24.006Z,101316.09
2023-03-26T20:40:56.262Z,101325.41
2023-03-26T20:43:25.066Z,101315.25
2023-03-26T20:45:52.003Z,101332.25
2023-03-26T20:48:18.382Z,101332.25
2023-03-26T20:50:50.695Z,101341.59
2023-03-26T20:53:18.826Z,101350.97
2023-03-26T20:55:46.175Z,101345.03
2023-03-26T20:58:18.145Z,101358.63
2023-03-26T21:01:00.386Z,101357.78
2023-03-26T21:03:27.592Z,101364.56
2023-03-26T21:05:54.075Z,101372.22
2023-03-26T21:08:21.714Z,101377.31
2023-03-26T21:10:48.509Z,101376.47
2023-03-26T21:13:38.304Z,101378.19
2023-03-26T21:16:05.241Z,101374.78
2023-03-26T21:18:32.289Z,101389.25
2023-03-26T21:21:46.036Z,101388.38
2023-03-26T21:24:45.035Z,101395.19
2023-03-26T21:27:28.486Z,101398.56
2023-03-26T21:29:56.095Z,101401.97
2023-03-26T21:32:23.183Z,101401.97
2023-03-26T21:34:58.665Z,101399.44
2023-03-26T21:37:26.985Z,101408.72
2023-03-26T21:39:53.753Z,101407.91
2023-03-26T21:42:20.496Z,101408.75
2023-03-26T21:44:47.669Z,101418.06
2023-03-26T21:47:14.823Z,101425.69
2023-03-26T21:49:41.611Z,101430.78
2023-03-26T21:52:14.633Z,101435.00
2023-03-26T21:54:43.144Z,101443.47
2023-03-26T21:57:22.286Z,101446.88
2023-03-26T22:00:14.288Z,101449.41
2023-03-26T22:06:06.242Z,101462.13
2023-03-26T22:08:38.795Z,101462.97
2023-03-26T22:11:07.144Z,101475.72
2023-03-26T22:13:35.650Z,101478.25
2023-03-26T22:16:02.518Z,101481.63
2023-03-26T22:18:30.110Z,101474.84
2023-03-26T22:20:59.016Z,101475.72
2023-03-26T22:23:26.752Z,101487.59
2023-03-26T22:25:53.236Z,101487.59
2023-03-26T22:28:19.808Z,101499.44
2023-03-26T22:30:46.573Z,101496.91
2023-03-26T22:33:14.323Z,101495.22
2023-03-26T22:35:44.547Z,101498.59
2023-03-26T22:38:11.734Z,101507.06
2023-03-26T22:40:38.691Z,101500.31
2023-03-26T22:43:05.277Z,101505.38
2023-03-26T22:45:32.537Z,101515.53
2023-03-26T22:48:03.969Z,101520.63
2023-03-26T22:50:31.063Z,101522.31
2023-03-26T22:52:57.491Z,101530.75
2023-03-26T22:55:29.328Z,101526.50
2023-03-26T22:57:56.899Z,101540.91
2023-03-26T23:00:23.509Z,101532.41
2023-03-26T23:02:50.091Z,101534.94
2023-03-26T23:05:20.287Z,101546.81
2023-03-26T23:07:47.319Z,101545.94
2023-03-26T23:10:14.071Z,101546.78
2023-03-26T23:12:41.508Z,101558.66
2023-03-26T23:15:09.748Z,101563.72
2023-03-26T23:17:37.582Z,101567.16
2023-03-26T23:20:12.448Z,101568.81
2023-03-26T23:22:38.921Z,101573.06
2023-03-26T23:25:06.119Z,101575.59
2023-03-26T23:27:33.093Z,101585.75
2023-03-26T23:30:01.181Z,101576.44
2023-03-26T23:32:28.250Z,101587.44
2023-03-26T23:34:56.059Z,101591.69
2023-03-26T23:37:23.533Z,101595.94
2023-03-26T23:39:51.103Z,101598.47
2023-03-26T23:42:18.158Z,101603.56
2023-03-26T23:44:56.885Z,101613.72
2023-03-26T23:47:23.874Z,101608.66
2023-03-26T23:49:50.431Z,101612.84
2023-03-26T23:52:16.926Z,101628.97
2023-03-26T23:54:44.581Z,101632.34
2023-03-26T23:57:11.483Z,101634.03
2023-03-26T23:59:38.270Z,101631.50
